createdAt,value
2022-07-25T00:01:57.666Z,154986.16
2022-07-25T00:04:25.253Z,154895.44
2022-07-25T00:06:52.757Z,154878.56
2022-07-25T00:09:21.709Z,154886.31
2022-07-25T00:11:49.157Z,154859.03
2022-07-25T00:14:16.613Z,154864.25
2022-07-25T00:16:44.091Z,154890.22
2022-07-25T00:19:11.586Z,154853.88
2022-07-25T00:21:39.004Z,154874.66
2022-07-25T00:24:07.562Z,154839.63
2022-07-25T00:26:40.019Z,154872.09
2022-07-25T00:29:08.063Z,154809.81
2022-07-25T00:31:35.838Z,154840.94
2022-07-25T00:34:04.498Z,154843.53
2022-07-25T00:36:32.303Z,154825.38
2022-07-25T00:38:59.749Z,154786.50
2022-07-25T00:41:27.201Z,154790.41
2022-07-25T00:43:55.945Z,154783.91
2022-07-25T00:46:23.942Z,154807.22
2022-07-25T00:48:51.528Z,154809.81
2022-07-25T00:51:19.422Z,154872.09
2022-07-25T00:53:46.973Z,154825.38
2022-07-25T00:56:14.393Z,154843.53
2022-07-25T00:58:41.825Z,154864.25
2022-07-25T01:01:10.611Z,154802.06
2022-07-25T01:03:38.091Z,154848.69
2022-07-25T01:06:05.913Z,154838.31
2022-07-25T01:08:33.580Z,154831.81
2022-07-25T01:11:01.124Z,154855.19
2022-07-25T01:13:28.577Z,154831.81
2022-07-25T01:15:56.120Z,154807.22
2022-07-25T01:18:24.897Z,154747.63
2022-07-25T01:20:53.931Z,154764.44
2022-07-25T01:23:21.420Z,154760.56
2022-07-25T01:25:48.895Z,154782.59
2022-07-25T01:28:16.312Z,154726.88
2022-07-25T01:30:44.050Z,154703.56
2022-07-25T01:33:16.424Z,154688.00
2022-07-25T01:35:44.015Z,154703.56
2022-07-25T01:38:12.974Z,154716.50
2022-07-25T01:40:40.648Z,154716.50
2022-07-25T01:43:08.545Z,154752.78
2022-07-25T01:45:36.261Z,154741.13
2022-07-25T01:48:03.989Z,154732.06
2022-07-25T01:50:31.506Z,154728.16
2022-07-25T01:52:58.974Z,154682.78
2022-07-25T01:55:27.756Z,154699.66
2022-07-25T01:57:57.374Z,154697.06
2022-07-25T02:00:25.243Z,154685.41
2022-07-25T02:03:13.308Z,154693.19
2022-07-25T02:05:40.907Z,154735.97
2022-07-25T02:08:08.357Z,154739.81
2022-07-25T02:10:40.082Z,154708.75
2022-07-25T02:13:07.950Z,154732.06
2022-07-25T02:15:36.694Z,154708.75
2022-07-25T02:18:04.304Z,154685.41
2022-07-25T02:20:31.766Z,154676.34
2022-07-25T02:22:59.330Z,154711.31
2022-07-25T02:25:26.741Z,154676.34
2022-07-25T02:27:55.482Z,154698.34
2022-07-25T02:30:22.975Z,154689.31
2022-07-25T02:32:50.834Z,154716.50
2022-07-25T02:35:18.359Z,154689.31
2022-07-25T02:37:46.317Z,154716.50
2022-07-25T02:40:14.345Z,154677.66
2022-07-25T02:42:41.854Z,154690.59
2022-07-25T02:45:11.021Z,154627.09
2022-07-25T02:47:39.098Z,154630.94
2022-07-25T02:50:07.514Z,154681.56
2022-07-25T02:52:35.756Z,154695.81
2022-07-25T02:55:09.089Z,154685.41
2022-07-25T02:57:37.055Z,154677.66
2022-07-25T03:00:06.051Z,154698.34
2022-07-25T03:02:35.028Z,154699.66
2022-07-25T03:05:02.935Z,154671.16
2022-07-25T03:07:30.331Z,154658.19
2022-07-25T03:09:57.743Z,154655.66
2022-07-25T03:12:25.195Z,154632.22
2022-07-25T03:14:52.606Z,154664.69
2022-07-25T03:17:20.047Z,154638.78
2022-07-25T03:19:48.767Z,154695.81
2022-07-25T03:22:16.191Z,154662.09
2022-07-25T03:24:43.745Z,154678.94
2022-07-25T03:27:11.161Z,154720.41
2022-07-25T03:29:39.065Z,154690.59
2022-07-25T03:32:07.396Z,154720.41
2022-07-25T03:34:35.349Z,154706.16
2022-07-25T03:37:05.544Z,154729.47
2022-07-25T03:39:34.045Z,154739.81
2022-07-25T03:42:02.511Z,154715.22
2022-07-25T03:44:29.921Z,154773.53
2022-07-25T03:46:57.376Z,154745.03
2022-07-25T03:49:24.876Z,154770.94
2022-07-25T03:51:52.325Z,154770.94
2022-07-25T03:54:21.319Z,154759.28
2022-07-25T03:56:50.270Z,154807.22
2022-07-25T03:59:19.397Z,154809.81
2022-07-25T04:01:48.271Z,154798.16
2022-07-25T04:04:16.218Z,154796.84
2022-07-25T04:06:44.008Z,154835.72
2022-07-25T04:09:12.261Z,154870.81
2022-07-25T04:11:41.041Z,154916.16
2022-07-25T04:14:09.186Z,154929.09
2022-07-25T04:16:37.120Z,154970.59
2022-07-25T04:19:06.947Z,154991.38
2022-07-25T04:21:34.635Z,155022.47
2022-07-25T04:24:02.384Z,155021.19
2022-07-25T04:26:30.033Z,155027.66
2022-07-25T04:28:58.854Z,155074.38
2022-07-25T04:31:26.592Z,155108.13
2022-07-25T04:33:54.112Z,155219.69
2022-07-25T04:36:22.030Z,155318.38
2022-07-25T04:38:49.442Z,155442.97
2022-07-25T04:41:17.100Z,155580.66
2022-07-25T04:43:48.499Z,155678.09
2022-07-25T04:46:20.438Z,155775.59
2022-07-25T04:48:48.171Z,155713.25
2022-07-25T04:51:15.994Z,155676.78
2022-07-25T04:53:43.455Z,155700.16
2022-07-25T04:56:10.874Z,155710.63
2022-07-25T04:58:38.495Z,155702.75
2022-07-25T05:01:06.175Z,155708.03
2022-07-25T05:03:34.975Z,155737.91
2022-07-25T05:06:02.411Z,155757.38
2022-07-25T05:08:30.028Z,155741.78
2022-07-25T05:10:57.622Z,155727.47
2022-07-25T05:13:25.093Z,155757.38
2022-07-25T05:15:52.664Z,155776.88
2022-07-25T05:18:20.187Z,155849.63
2022-07-25T05:20:49.020Z,155892.53
2022-07-25T05:23:16.518Z,155943.31
2022-07-25T05:25:44.086Z,155965.38
2022-07-25T05:28:11.492Z,156013.47
2022-07-25T05:30:40.137Z,156030.38
2022-07-25T05:33:08.013Z,156051.22
2022-07-25T05:35:35.591Z,156077.22
2022-07-25T05:38:04.674Z,156103.28
2022-07-25T05:40:32.111Z,156148.75
2022-07-25T05:43:03.171Z,156178.69
2022-07-25T05:45:31.323Z,156196.91
2022-07-25T05:47:58.808Z,156228.13
2022-07-25T05:50:26.374Z,156251.53
2022-07-25T05:52:53.816Z,156288.00
2022-07-25T05:55:22.592Z,156298.41
2022-07-25T05:57:50.076Z,156238.53
2022-07-25T06:00:17.900Z,156285.41
2022-07-25T06:02:45.947Z,156288.00
2022-07-25T06:05:16.320Z,156345.28
2022-07-25T06:07:44.111Z,156433.75
2022-07-25T06:10:11.683Z,156439.00
2022-07-25T06:12:40.466Z,156474.19
2022-07-25T06:15:17.726Z,156437.72
2022-07-25T06:17:50.702Z,156410.31
2022-07-25T06:20:18.164Z,156480.66
2022-07-25T06:22:45.608Z,156518.41
2022-07-25T06:25:13.058Z,156549.66
2022-07-25T06:27:42.203Z,156541.88
2022-07-25T06:30:19.755Z,156593.94
2022-07-25T06:32:48.041Z,156621.34
2022-07-25T06:35:15.495Z,156622.66
2022-07-25T06:37:42.984Z,156665.56
2022-07-25T06:40:11.169Z,156742.44
2022-07-25T06:42:39.534Z,156763.25
2022-07-25T06:45:10.998Z,156748.94
2022-07-25T06:47:39.085Z,156773.72
2022-07-25T06:50:08.239Z,156808.94
2022-07-25T06:52:39.187Z,156816.72
2022-07-25T06:55:09.280Z,156790.69
2022-07-25T06:57:37.382Z,156807.63
2022-07-25T07:00:09.600Z,156935.31
2022-07-25T07:02:48.643Z,157106.16
2022-07-25T07:05:16.072Z,157254.84
2022-07-25T07:07:47.567Z,157581.06
2022-07-25T07:10:15.888Z,157565.41
2022-07-25T07:12:43.410Z,157532.75
2022-07-25T07:15:11.668Z,157436.19
2022-07-25T07:17:40.527Z,157507.97
2022-07-25T07:20:09.691Z,157880.13
2022-07-25T07:22:44.738Z,158006.88
2022-07-25T07:25:13.952Z,157737.78
2022-07-25T07:27:41.731Z,157850.13
2022-07-25T07:30:10.458Z,157675.03
2022-07-25T07:32:40.141Z,157884.06
2022-07-25T07:35:08.052Z,157972.91
2022-07-25T07:37:40.058Z,157925.84
2022-07-25T07:40:17.212Z,157954.59
2022-07-25T07:42:48.559Z,157914.09
2022-07-25T07:45:17.842Z,158022.56
2022-07-25T07:47:48.637Z,158004.25
2022-07-25T07:50:18.216Z,157844.84
2022-07-25T07:52:46.312Z,157890.63
2022-07-25T07:55:31.888Z,157869.69
2022-07-25T07:58:00.487Z,157831.78
2022-07-25T08:00:30.909Z,157888.00
2022-07-25T08:03:00.937Z,157847.50
2022-07-25T08:05:30.734Z,157872.31
2022-07-25T08:07:59.506Z,157915.41
2022-07-25T08:10:29.010Z,157906.25
2022-07-25T08:12:56.589Z,157929.78
2022-07-25T08:15:24.538Z,157933.66
2022-07-25T08:17:52.597Z,157897.13
2022-07-25T08:20:39.233Z,157955.91
2022-07-25T08:23:08.282Z,158017.31
2022-07-25T08:25:36.473Z,158063.06
2022-07-25T08:28:06.279Z,158095.75
2022-07-25T08:30:34.993Z,158168.94
2022-07-25T08:33:05.304Z,158165.00
2022-07-25T08:35:35.846Z,158163.75
2022-07-25T08:38:04.617Z,158025.19
2022-07-25T08:40:33.645Z,158099.63
2022-07-25T08:43:01.771Z,158125.75
2022-07-25T08:45:30.021Z,158077.44
2022-07-25T08:47:57.832Z,158080.06
2022-07-25T08:50:28.051Z,158059.13
2022-07-25T08:53:23.065Z,158043.44
2022-07-25T08:55:45.715Z,158116.63
2022-07-25T08:58:14.666Z,158124.44
2022-07-25T09:00:42.513Z,158255.22
2022-07-25T09:03:10.059Z,158397.72
2022-07-25T09:05:38.031Z,158502.41
2022-07-25T09:08:11.438Z,158558.69
2022-07-25T09:10:42.344Z,158573.06
2022-07-25T09:13:14.143Z,158545.63
2022-07-25T09:15:48.229Z,158634.53
2022-07-25T09:18:18.792Z,158673.81
2022-07-25T09:20:48.353Z,158732.69
2022-07-25T09:23:29.553Z,158698.66
2022-07-25T09:26:03.298Z,158624.06
2022-07-25T09:28:30.693Z,158634.53
2022-07-25T09:30:59.578Z,158613.63
2022-07-25T09:33:28.855Z,158608.38
2022-07-25T09:35:57.424Z,158639.78
2022-07-25T09:38:26.411Z,158662.00
2022-07-25T09:40:58.148Z,158650.25
2022-07-25T09:43:37.412Z,158760.19
2022-07-25T09:46:06.841Z,158739.22
2022-07-25T09:48:35.024Z,158799.47
2022-07-25T09:51:02.813Z,158834.78
2022-07-25T09:53:31.605Z,158823.03
2022-07-25T09:55:59.637Z,158864.91
2022-07-25T09:58:29.001Z,158853.13
2022-07-25T10:01:02.113Z,158908.09
2022-07-25T10:03:43.195Z,158815.19
2022-07-25T10:06:20.609Z,158754.94
2022-07-25T10:08:50.632Z,158702.59
2022-07-25T10:11:23.019Z,158752.34
2022-07-25T10:13:50.747Z,158812.56
2022-07-25T10:16:20.153Z,158846.59
2022-07-25T10:18:52.765Z,158786.34
2022-07-25T10:21:29.001Z,158717.00
2022-07-25T10:24:03.807Z,158724.88
2022-07-25T10:26:32.372Z,158707.84
2022-07-25T10:29:01.692Z,158785.03
2022-07-25T10:31:36.423Z,158861.00
2022-07-25T10:34:07.089Z,158870.16
2022-07-25T10:36:46.902Z,158859.69
2022-07-25T10:39:17.944Z,158866.22
2022-07-25T10:41:52.092Z,158888.50
2022-07-25T10:44:19.526Z,158909.41
2022-07-25T10:46:49.147Z,158959.16
2022-07-25T10:49:29.064Z,158908.09
2022-07-25T10:52:00.585Z,158917.22
2022-07-25T10:54:34.568Z,158864.91
2022-07-25T10:57:02.457Z,158842.66
2022-07-25T10:59:33.791Z,158769.31
2022-07-25T11:02:01.902Z,158823.03
2022-07-25T11:04:29.990Z,158885.84
2022-07-25T11:06:57.975Z,158867.53
2022-07-25T11:09:28.051Z,158930.44
2022-07-25T11:11:58.807Z,158838.72
2022-07-25T11:14:31.133Z,158877.97
2022-07-25T11:16:58.869Z,158887.16
2022-07-25T11:19:28.615Z,158891.06
2022-07-25T11:21:57.692Z,158935.63
2022-07-25T11:24:35.729Z,158953.97
2022-07-25T11:27:12.854Z,158871.47
2022-07-25T11:29:41.467Z,158867.53
2022-07-25T11:32:10.290Z,158875.41
2022-07-25T11:34:41.167Z,158829.59
2022-07-25T11:37:14.591Z,158955.28
2022-07-25T11:39:44.528Z,158978.81
2022-07-25T11:42:16.335Z,158923.84
2022-07-25T11:44:47.969Z,158919.88
2022-07-25T11:47:26.964Z,158862.28
2022-07-25T11:49:56.197Z,158923.84
2022-07-25T11:52:26.103Z,158904.16
2022-07-25T11:54:55.239Z,158885.84
2022-07-25T11:57:25.475Z,158974.88
2022-07-25T11:59:53.579Z,158926.47
2022-07-25T12:02:26.029Z,158875.41
2022-07-25T12:04:58.701Z,158853.13
2022-07-25T12:07:40.133Z,158888.50
2022-07-25T12:10:09.766Z,158859.69
2022-07-25T12:12:50.794Z,158927.78
2022-07-25T12:15:20.834Z,158938.25
2022-07-25T12:17:49.033Z,158984.09
2022-07-25T12:20:17.895Z,158977.53
2022-07-25T12:22:45.891Z,158912.03
2022-07-25T12:25:14.353Z,158933.00
2022-07-25T12:27:41.881Z,158948.72
2022-07-25T12:30:12.374Z,158972.25
2022-07-25T12:32:40.131Z,158967.06
2022-07-25T12:35:09.337Z,158991.91
2022-07-25T12:37:37.367Z,159014.16
2022-07-25T12:40:06.154Z,158948.72
2022-07-25T12:42:33.646Z,159024.66
2022-07-25T12:45:01.062Z,159011.56
2022-07-25T12:47:30.123Z,158969.69
2022-07-25T12:49:57.632Z,158944.78
2022-07-25T12:52:25.081Z,158965.75
2022-07-25T12:54:52.681Z,158965.75
2022-07-25T12:57:20.799Z,159001.06
2022-07-25T12:59:48.330Z,158995.84
2022-07-25T13:02:15.925Z,159006.31
2022-07-25T13:04:45.250Z,159079.69
2022-07-25T13:07:15.365Z,159056.09
2022-07-25T13:09:43.022Z,159040.34
2022-07-25T13:12:16.157Z,158993.22
2022-07-25T13:14:43.944Z,158925.16
2022-07-25T13:17:11.996Z,158965.75
2022-07-25T13:19:39.479Z,159018.09
2022-07-25T13:22:08.308Z,158986.66
2022-07-25T13:24:35.749Z,159019.41
2022-07-25T13:27:04.261Z,159023.34
2022-07-25T13:29:32.059Z,159019.41
2022-07-25T13:31:59.750Z,159035.13
2022-07-25T13:34:27.680Z,158991.91
2022-07-25T13:36:55.162Z,158968.38
2022-07-25T13:39:23.919Z,158978.81
2022-07-25T13:41:51.370Z,158969.69
2022-07-25T13:44:18.866Z,159014.16
2022-07-25T13:46:49.831Z,158993.22
2022-07-25T13:49:17.482Z,159020.72
2022-07-25T13:51:45.619Z,159001.06
2022-07-25T13:54:13.461Z,159033.81
2022-07-25T13:56:42.444Z,159037.75
2022-07-25T13:59:12.455Z,158993.22
2022-07-25T14:01:44.390Z,158961.81
2022-07-25T14:04:12.026Z,158978.81
2022-07-25T14:06:39.504Z,158980.13
2022-07-25T14:09:07.651Z,158995.84
2022-07-25T14:11:35.454Z,159012.84
2022-07-25T14:14:04.257Z,159035.13
2022-07-25T14:16:31.762Z,158967.06
2022-07-25T14:18:59.219Z,158972.25
2022-07-25T14:21:26.710Z,158967.06
2022-07-25T14:23:54.588Z,158974.88
2022-07-25T14:26:22.178Z,158976.19
2022-07-25T14:28:49.852Z,158974.88
2022-07-25T14:31:18.705Z,158976.19
2022-07-25T14:33:46.246Z,158961.81
2022-07-25T14:36:14.242Z,158951.34
2022-07-25T14:38:41.669Z,158990.59
2022-07-25T14:41:12.882Z,158951.34
2022-07-25T14:43:41.318Z,158904.16
2022-07-25T14:46:09.184Z,158891.06
2022-07-25T14:48:38.811Z,158909.41
2022-07-25T14:51:07.488Z,158930.44
2022-07-25T14:53:35.793Z,158915.97
2022-07-25T14:56:03.699Z,158902.88
2022-07-25T14:58:31.273Z,158883.25
2022-07-25T15:00:58.766Z,158917.22
2022-07-25T15:03:26.229Z,158870.16
2022-07-25T15:05:54.994Z,158883.25
2022-07-25T15:08:22.552Z,158875.41
2022-07-25T15:10:50.341Z,158885.84
2022-07-25T15:13:33.197Z,158888.50
2022-07-25T15:16:02.071Z,158849.19
2022-07-25T15:18:29.676Z,158847.91
2022-07-25T15:20:58.536Z,158791.59
2022-07-25T15:23:29.735Z,158783.72
2022-07-25T15:26:02.246Z,158770.63
2022-07-25T15:28:30.789Z,158743.16
2022-07-25T15:30:58.236Z,158775.88
2022-07-25T15:33:25.679Z,158788.97
2022-07-25T15:35:53.352Z,158768.00
2022-07-25T15:38:22.124Z,158788.97
2022-07-25T15:40:49.941Z,158807.31
2022-07-25T15:43:17.513Z,158799.47
2022-07-25T15:45:46.791Z,158812.56
2022-07-25T15:48:16.094Z,158813.88
2022-07-25T15:50:46.700Z,158819.13
2022-07-25T15:53:14.219Z,158785.03
2022-07-25T15:55:43.251Z,158803.41
2022-07-25T15:58:12.059Z,158798.16
2022-07-25T16:00:40.858Z,158798.16
2022-07-25T16:03:08.642Z,158802.09
2022-07-25T16:05:36.588Z,158775.88
2022-07-25T16:08:04.345Z,158732.69
2022-07-25T16:10:33.231Z,158702.59
2022-07-25T16:13:02.414Z,158694.78
2022-07-25T16:15:30.390Z,158650.25
2022-07-25T16:18:02.358Z,158664.69
2022-07-25T16:20:31.326Z,158673.81
2022-07-25T16:22:59.413Z,158689.53
2022-07-25T16:25:28.758Z,158718.31
2022-07-25T16:27:56.608Z,158788.97
2022-07-25T16:30:25.817Z,158828.28
2022-07-25T16:32:53.553Z,158833.53
2022-07-25T16:35:21.260Z,158837.41
2022-07-25T16:37:48.988Z,158817.81
2022-07-25T16:40:16.539Z,158811.25
2022-07-25T16:42:44.467Z,158807.31
2022-07-25T16:45:12.489Z,158773.25
2022-07-25T16:47:42.723Z,158747.09
2022-07-25T16:50:10.448Z,158749.72
2022-07-25T16:52:37.934Z,158740.53
2022-07-25T16:55:06.205Z,158728.75
2022-07-25T16:57:33.704Z,158697.41
2022-07-25T17:00:01.655Z,158710.47
2022-07-25T17:02:29.830Z,158711.75
2022-07-25T17:04:59.232Z,158692.16
2022-07-25T17:07:27.000Z,158676.44
2022-07-25T17:09:54.709Z,158681.69
2022-07-25T17:12:22.324Z,158658.06
2022-07-25T17:14:49.895Z,158642.41
2022-07-25T17:17:17.443Z,158629.31
2022-07-25T17:19:44.832Z,158613.63
2022-07-25T17:22:13.685Z,158592.66
2022-07-25T17:24:41.239Z,158579.59
2022-07-25T17:27:09.828Z,158575.66
2022-07-25T17:29:37.677Z,158563.88
2022-07-25T17:32:06.875Z,158558.69
2022-07-25T17:34:34.558Z,158535.13
2022-07-25T17:37:02.872Z,158528.56
2022-07-25T17:39:33.515Z,158524.63
2022-07-25T17:42:01.648Z,158508.91
2022-07-25T17:44:29.059Z,158488.00
2022-07-25T17:46:56.767Z,158461.88
2022-07-25T17:49:24.247Z,158422.66
2022-07-25T17:51:51.721Z,158404.31
2022-07-25T17:54:19.160Z,158435.72
2022-07-25T17:56:48.072Z,158385.97
2022-07-25T17:59:15.500Z,158384.66
2022-07-25T18:01:42.949Z,158341.53
2022-07-25T18:04:10.971Z,158299.72
2022-07-25T18:06:38.651Z,158263.03
2022-07-25T18:09:06.101Z,158252.59
2022-07-25T18:11:34.040Z,158265.72
2022-07-25T18:14:02.792Z,158238.19
2022-07-25T18:16:30.322Z,158196.38
2022-07-25T18:18:57.834Z,158064.38
2022-07-25T18:21:25.624Z,157975.47
2022-07-25T18:23:53.525Z,157842.22
2022-07-25T18:26:21.811Z,157740.41
2022-07-25T18:28:49.509Z,157714.28
2022-07-25T18:31:18.399Z,157592.81
2022-07-25T18:33:46.008Z,157603.28
2022-07-25T18:36:13.546Z,157570.63
2022-07-25T18:38:40.963Z,157598.06
2022-07-25T18:41:28.800Z,157573.25
2022-07-25T18:43:56.925Z,157480.56
2022-07-25T18:46:25.766Z,157437.50
2022-07-25T18:48:54.085Z,157425.78
2022-07-25T18:51:21.599Z,157437.50
2022-07-25T18:53:49.545Z,157429.66
2022-07-25T18:56:17.762Z,157373.50
2022-07-25T18:58:45.550Z,157367.00
2022-07-25T19:01:13.479Z,157408.81
2022-07-25T19:03:42.262Z,157416.59
2022-07-25T19:06:10.615Z,157338.31
2022-07-25T19:08:38.191Z,157363.09
2022-07-25T19:11:05.666Z,157348.72
2022-07-25T19:13:50.964Z,157329.19
2022-07-25T19:16:19.320Z,157264.00
2022-07-25T19:18:48.516Z,157205.25
2022-07-25T19:21:16.731Z,157244.34
2022-07-25T19:23:50.133Z,157150.47
2022-07-25T19:26:17.811Z,157070.91
2022-07-25T19:28:45.256Z,157053.97
2022-07-25T19:31:14.656Z,157080.03
2022-07-25T19:33:42.230Z,157056.56
2022-07-25T19:36:11.473Z,157132.22
2022-07-25T19:38:39.231Z,157141.38
2022-07-25T19:41:08.669Z,157114.00
2022-07-25T19:43:36.126Z,157129.59
2022-07-25T19:46:03.578Z,157149.16
2022-07-25T19:48:31.255Z,157074.78
2022-07-25T19:50:58.845Z,157067.00
2022-07-25T19:53:28.817Z,157076.09
2022-07-25T19:55:56.405Z,157038.31
2022-07-25T19:58:23.897Z,156913.16
2022-07-25T20:00:51.634Z,156913.16
2022-07-25T20:03:23.201Z,156986.19
2022-07-25T20:05:51.081Z,157001.84
2022-07-25T20:08:18.874Z,156973.16
2022-07-25T20:10:48.249Z,156931.41
2022-07-25T20:13:16.028Z,156939.25
2022-07-25T20:15:43.586Z,156979.66
2022-07-25T20:18:13.792Z,156944.47
2022-07-25T20:20:46.481Z,156887.09
2022-07-25T20:23:15.557Z,156824.56
2022-07-25T20:25:43.011Z,156874.06
2022-07-25T20:28:12.040Z,156853.22
2022-07-25T20:30:39.644Z,156837.59
2022-07-25T20:33:09.625Z,156801.09
2022-07-25T20:35:38.534Z,156834.97
2022-07-25T20:38:09.424Z,156715.09
2022-07-25T20:40:38.049Z,156655.16
2022-07-25T20:43:09.075Z,156537.94
2022-07-25T20:45:39.522Z,156401.22
2022-07-25T20:48:07.560Z,156500.22
2022-07-25T20:50:37.385Z,156518.41
2022-07-25T20:53:05.035Z,156498.91
2022-07-25T20:55:33.011Z,156518.41
2022-07-25T20:58:01.063Z,156517.09
2022-07-25T21:00:30.384Z,156543.13
2022-07-25T21:02:59.997Z,156530.13
2022-07-25T21:05:28.134Z,156498.91
2022-07-25T21:07:55.704Z,156522.31
2022-07-25T21:10:23.618Z,156522.31
2022-07-25T21:12:51.178Z,156488.47
2022-07-25T21:15:18.967Z,156502.78
2022-07-25T21:17:46.424Z,156498.91
2022-07-25T21:20:15.659Z,156504.09
2022-07-25T21:22:44.354Z,156528.84
2022-07-25T21:25:11.927Z,156267.22
2022-07-25T21:27:39.962Z,156297.16
2022-07-25T21:30:10.722Z,156324.47
2022-07-25T21:32:39.166Z,156351.81
2022-07-25T21:35:07.444Z,156389.53
2022-07-25T21:37:36.208Z,156337.47
2022-07-25T21:42:55.400Z,156303.63
2022-07-25T21:45:23.042Z,156330.94
2022-07-25T21:47:50.454Z,156228.13
2022-07-25T21:50:35.588Z,156301.00
2022-07-25T21:53:13.879Z,156308.84
2022-07-25T21:55:41.716Z,156260.63
2022-07-25T21:58:09.415Z,156187.81
2022-07-25T22:00:41.733Z,156098.03
2022-07-25T22:03:12.960Z,156087.66
2022-07-25T22:05:40.428Z,156182.59
2022-07-25T22:08:09.235Z,156260.63
2022-07-25T22:10:38.047Z,156268.53
2022-07-25T22:13:07.157Z,156289.31
2022-07-25T22:15:34.601Z,156295.84
2022-07-25T22:18:02.061Z,156295.84
2022-07-25T22:20:29.542Z,156314.03
2022-07-25T22:22:56.997Z,156179.97
2022-07-25T22:25:24.772Z,156215.13
2022-07-25T22:27:53.528Z,156238.53
2022-07-25T22:30:21.145Z,156176.06
2022-07-25T22:32:49.587Z,156108.44
2022-07-25T22:35:17.373Z,156113.66
2022-07-25T22:37:45.372Z,156140.97
2022-07-25T22:40:14.168Z,156222.91
2022-07-25T22:42:41.723Z,156189.06
2022-07-25T22:45:11.408Z,156269.81
2022-07-25T22:47:38.909Z,156259.31
2022-07-25T22:50:07.998Z,156298.41
2022-07-25T22:52:35.845Z,156260.63
2022-07-25T22:55:03.504Z,156254.16
2022-07-25T22:57:36.801Z,156228.13
2022-07-25T23:00:06.292Z,156165.66
2022-07-25T23:02:35.385Z,156186.50
2022-07-25T23:05:04.612Z,156150.06
2022-07-25T23:07:32.007Z,156130.59
2022-07-25T23:09:59.664Z,156090.25
2022-07-25T23:12:27.079Z,156112.34
2022-07-25T23:14:54.560Z,156108.44
2022-07-25T23:17:22.436Z,156069.38
2022-07-25T23:19:53.934Z,156101.97
2022-07-25T23:22:22.626Z,156069.38
2022-07-25T23:24:50.050Z,156039.47
2022-07-25T23:27:17.744Z,155986.16
2022-07-25T23:29:45.464Z,156027.78
2022-07-25T23:32:12.890Z,156040.78
2022-07-25T23:34:40.342Z,156003.06
2022-07-25T23:37:09.114Z,155949.78
2022-07-25T23:39:36.537Z,155876.91
2022-07-25T23:42:04.470Z,155880.84
2022-07-25T23:44:31.928Z,155849.63
2022-07-25T23:47:01.465Z,155856.16
2022-07-25T23:49:29.812Z,155884.75
2022-07-25T23:51:57.436Z,155900.41
2022-07-25T23:54:26.487Z,155887.34
2022-07-25T23:56:54.434Z,155873.06
2022-07-25T23:59:21.877Z,155927.69
